sensor_id;sensor_type;location;lat;lon;timestamp;pressure;altitude;pressure_sealevel;temperature;humidity
32492;BME280;20605;49.742;18.802;2023-04-12T01:06:24;97321.84;;;5.79;100.00
32492;BME280;20605;49.742;18.802;2023-04-12T01:14:34;97320.40;;;5.92;100.00
32492;BME280;20605;49.742;18.802;2023-04-12T01:17:08;97317.74;;;5.95;100.00
32492;BME280;20605;49.742;18.802;2023-04-12T01:19:55;97319.86;;;5.93;100.00
32492;BME280;20605;49.742;18.802;2023-04-12T01:22:37;97322.30;;;5.92;100.00
32492;BME280;20605;49.742;18.802;2023-04-12T01:28:23;97324.48;;;5.94;100.00
32492;BME280;20605;49.742;18.802;2023-04-12T01:30:53;97322.70;;;5.97;100.00
32492;BME280;20605;49.742;18.802;2023-04-12T01:33:23;97323.83;;;6.01;100.00
32492;BME280;20605;49.742;18.802;2023-04-12T01:35:57;97325.40;;;6.00;100.00
32492;BME280;20605;49.742;18.802;2023-04-12T01:38:24;97325.45;;;5.98;100.00
32492;BME280;20605;49.742;18.802;2023-04-12T01:40:50;97321.84;;;5.97;100.00
32492;BME280;20605;49.742;18.802;2023-04-12T01:43:17;97325.48;;;5.97;100.00
32492;BME280;20605;49.742;18.802;2023-04-12T01:45:43;97325.28;;;5.97;100.00
32492;BME280;20605;49.742;18.802;2023-04-12T01:48:10;97319.05;;;5.98;100.00
32492;BME280;20605;49.742;18.802;2023-04-12T01:50:51;97321.58;;;6.01;100.00
32492;BME280;20605;49.742;18.802;2023-04-12T01:53:27;97322.28;;;6.01;100.00
32492;BME280;20605;49.742;18.802;2023-04-12T01:56:08;97327.25;;;6.02;100.00
32492;BME280;20605;49.742;18.802;2023-04-12T01:58:35;97324.91;;;5.99;100.00
32492;BME280;20605;49.742;18.802;2023-04-12T02:01:01;97324.30;;;5.95;100.00
32492;BME280;20605;49.742;18.802;2023-04-12T02:03:29;97321.20;;;5.95;100.00
32492;BME280;20605;49.742;18.802;2023-04-12T02:05:57;97320.83;;;5.96;100.00
32492;BME280;20605;49.742;18.802;2023-04-12T02:08:25;97319.49;;;5.94;100.00
32492;BME280;20605;49.742;18.802;2023-04-12T02:10:51;97317.98;;;5.92;100.00
32492;BME280;20605;49.742;18.802;2023-04-12T02:13:17;97318.55;;;5.89;100.00
32492;BME280;20605;49.742;18.802;2023-04-12T02:15:43;97316.89;;;5.85;100.00
32492;BME280;20605;49.742;18.802;2023-04-12T02:18:11;97308.50;;;5.82;100.00
32492;BME280;20605;49.742;18.802;2023-04-12T02:20:38;97305.98;;;5.79;100.00
32492;BME280;20605;49.742;18.802;2023-04-12T02:23:06;97305.83;;;5.78;100.00
32492;BME280;20605;49.742;18.802;2023-04-12T02:25:32;97302.02;;;5.79;100.00
32492;BME280;20605;49.742;18.802;2023-04-12T02:27:58;97298.60;;;5.78;100.00
32492;BME280;20605;49.742;18.802;2023-04-12T02:30:24;97298.62;;;5.77;100.00
32492;BME280;20605;49.742;18.802;2023-04-12T02:32:55;97297.38;;;5.79;100.00
32492;BME280;20605;49.742;18.802;2023-04-12T02:35:25;97300.77;;;5.81;100.00
32492;BME280;20605;49.742;18.802;2023-04-12T02:37:59;97301.20;;;5.85;100.00
32492;BME280;20605;49.742;18.802;2023-04-12T02:40:28;97301.71;;;5.85;100.00
32492;BME280;20605;49.742;18.802;2023-04-12T02:42:54;97301.20;;;5.85;100.00
32492;BME280;20605;49.742;18.802;2023-04-12T02:45:21;97298.75;;;5.87;100.00
32492;BME280;20605;49.742;18.802;2023-04-12T02:47:47;97302.86;;;5.90;100.00
32492;BME280;20605;49.742;18.802;2023-04-12T02:50:14;97298.08;;;5.87;100.00
32492;BME280;20605;49.742;18.802;2023-04-12T02:52:47;97297.85;;;5.81;100.00
32492;BME280;20605;49.742;18.802;2023-04-12T02:55:14;97297.90;;;5.79;100.00
32492;BME280;20605;49.742;18.802;2023-04-12T03:10:27;97298.60;;;5.70;100.00
32492;BME280;20605;49.742;18.802;2023-04-12T03:13:13;97298.46;;;5.68;100.00
32492;BME280;20605;49.742;18.802;2023-04-12T03:15:45;97299.48;;;5.69;100.00
32492;BME280;20605;49.742;18.802;2023-04-12T03:18:11;97302.59;;;5.68;100.00
32492;BME280;20605;49.742;18.802;2023-04-12T03:20:43;97303.35;;;5.65;100.00
32492;BME280;20605;49.742;18.802;2023-04-12T03:23:10;97304.34;;;5.67;100.00
32492;BME280;20605;49.742;18.802;2023-04-12T03:25:40;97302.81;;;5.66;100.00
32492;BME280;20605;49.742;18.802;2023-04-12T03:28:33;97301.64;;;5.64;100.00
32492;BME280;20605;49.742;18.802;2023-04-12T03:31:00;97299.02;;;5.66;100.00
32492;BME280;20605;49.742;18.802;2023-04-12T03:33:39;97297.79;;;5.67;100.00
32492;BME280;20605;49.742;18.802;2023-04-12T03:36:10;97297.66;;;5.65;100.00
32492;BME280;20605;49.742;18.802;2023-04-12T03:38:36;97289.75;;;5.64;100.00
32492;BME280;20605;49.742;18.802;2023-04-12T03:41:02;97287.89;;;5.63;100.00
32492;BME280;20605;49.742;18.802;2023-04-12T03:43:36;97288.26;;;5.62;100.00
32492;BME280;20605;49.742;18.802;2023-04-12T03:46:06;97289.45;;;5.62;100.00
32492;BME280;20605;49.742;18.802;2023-04-12T03:48:33;97289.10;;;5.63;100.00
32492;BME280;20605;49.742;18.802;2023-04-12T03:51:00;97284.91;;;5.65;100.00
32492;BME280;20605;49.742;18.802;2023-04-12T03:53:34;97287.13;;;5.67;100.00
32492;BME280;20605;49.742;18.802;2023-04-12T03:56:00;97283.27;;;5.70;100.00
32492;BME280;20605;49.742;18.802;2023-04-12T03:58:29;97280.56;;;5.67;100.00
32492;BME280;20605;49.742;18.802;2023-04-12T04:00:56;97278.34;;;5.67;100.00
32492;BME280;20605;49.742;18.802;2023-04-12T04:03:23;97277.26;;;5.69;100.00
32492;BME280;20605;49.742;18.802;2023-04-12T04:06:11;97276.02;;;5.70;100.00
32492;BME280;20605;49.742;18.802;2023-04-12T04:08:37;97274.11;;;5.71;100.00
32492;BME280;20605;49.742;18.802;2023-04-12T04:11:04;97269.60;;;5.72;100.00
32492;BME280;20605;49.742;18.802;2023-04-12T04:13:35;97264.39;;;5.75;100.00
32492;BME280;20605;49.742;18.802;2023-04-12T04:16:05;97263.29;;;5.78;100.00
32492;BME280;20605;49.742;18.802;2023-04-12T04:18:32;97266.35;;;5.80;100.00
32492;BME280;20605;49.742;18.802;2023-04-12T04:21:00;97266.39;;;5.78;100.00
32492;BME280;20605;49.742;18.802;2023-04-12T04:23:36;97266.54;;;5.79;100.00
32492;BME280;20605;49.742;18.802;2023-04-12T04:26:10;97267.39;;;5.79;100.00
32492;BME280;20605;49.742;18.802;2023-04-12T04:28:45;97269.89;;;5.75;100.00
32492;BME280;20605;49.742;18.802;2023-04-12T04:31:16;97272.34;;;5.73;100.00
32492;BME280;20605;49.742;18.802;2023-04-12T04:34:13;97273.27;;;5.70;100.00
32492;BME280;20605;49.742;18.802;2023-04-12T04:36:42;97276.24;;;5.68;100.00
32492;BME280;20605;49.742;18.802;2023-04-12T04:39:17;97280.42;;;5.65;100.00
32492;BME280;20605;49.742;18.802;2023-04-12T04:41:43;97279.61;;;5.63;100.00
32492;BME280;20605;49.742;18.802;2023-04-12T04:44:32;97280.11;;;5.64;100.00
32492;BME280;20605;49.742;18.802;2023-04-12T04:47:03;97283.15;;;5.67;100.00
32492;BME280;20605;49.742;18.802;2023-04-12T04:49:29;97285.63;;;5.64;100.00
32492;BME280;20605;49.742;18.802;2023-04-12T04:52:21;97282.03;;;5.63;100.00
32492;BME280;20605;49.742;18.802;2023-04-12T04:55:57;97282.16;;;5.57;100.00
32492;BME280;20605;49.742;18.802;2023-04-12T04:58:54;97285.52;;;5.52;100.00
32492;BME280;20605;49.742;18.802;2023-04-12T05:02:59;97289.89;;;5.49;100.00
32492;BME280;20605;49.742;18.802;2023-04-12T05:06:50;97301.75;;;5.50;100.00
32492;BME280;20605;49.742;18.802;2023-04-12T05:09:42;97302.27;;;5.50;100.00
32492;BME280;20605;49.742;18.802;2023-04-12T05:18:39;97305.10;;;5.46;100.00
32492;BME280;20605;49.742;18.802;2023-04-12T05:24:09;97303.11;;;5.50;100.00
32492;BME280;20605;49.742;18.802;2023-04-12T05:27:00;97301.29;;;5.56;100.00
32492;BME280;20605;49.742;18.802;2023-04-12T05:32:23;97306.58;;;5.49;100.00
32492;BME280;20605;49.742;18.802;2023-04-12T05:34:50;97306.42;;;5.49;100.00
32492;BME280;20605;49.742;18.802;2023-04-12T05:37:17;97308.09;;;5.52;100.00
32492;BME280;20605;49.742;18.802;2023-04-12T05:39:43;97309.06;;;5.55;100.00
32492;BME280;20605;49.742;18.802;2023-04-12T05:42:10;97305.70;;;5.59;100.00
32492;BME280;20605;49.742;18.802;2023-04-12T05:44:37;97305.30;;;5.62;100.00
32492;BME280;20605;49.742;18.802;2023-04-12T05:47:04;97305.99;;;5.62;100.00
32492;BME280;20605;49.742;18.802;2023-04-12T05:49:38;97303.85;;;5.66;100.00
32492;BME280;20605;49.742;18.802;2023-04-12T05:52:06;97304.09;;;5.71;100.00
32492;BME280;20605;49.742;18.802;2023-04-12T05:54:33;97304.61;;;5.71;100.00
32492;BME280;20605;49.742;18.802;2023-04-12T05:56:59;97308.11;;;5.68;100.00
32492;BME280;20605;49.742;18.802;2023-04-12T05:59:25;97306.22;;;5.68;100.00
32492;BME280;20605;49.742;18.802;2023-04-12T06:01:51;97302.09;;;5.68;100.00
32492;BME280;20605;49.742;18.802;2023-04-12T06:04:18;97305.55;;;5.67;100.00
32492;BME280;20605;49.742;18.802;2023-04-12T06:06:44;97305.88;;;5.68;100.00
32492;BME280;20605;49.742;18.802;2023-04-12T06:09:12;97297.94;;;5.69;100.00
32492;BME280;20605;49.742;18.802;2023-04-12T06:11:39;97292.08;;;5.69;100.00
32492;BME280;20605;49.742;18.802;2023-04-12T06:14:05;97289.52;;;5.67;100.00
32492;BME280;20605;49.742;18.802;2023-04-12T06:16:31;97289.23;;;5.64;100.00
32492;BME280;20605;49.742;18.802;2023-04-12T06:18:59;97291.63;;;5.65;100.00
32492;BME280;20605;49.742;18.802;2023-04-12T06:21:27;97288.27;;;5.70;100.00
32492;BME280;20605;49.742;18.802;2023-04-12T06:24:06;97286.94;;;5.75;100.00
32492;BME280;20605;49.742;18.802;2023-04-12T06:26:33;97290.16;;;5.78;100.00
32492;BME280;20605;49.742;18.802;2023-04-12T06:29:06;97285.96;;;5.81;100.00
32492;BME280;20605;49.742;18.802;2023-04-12T06:31:38;97285.77;;;5.82;100.00
32492;BME280;20605;49.742;18.802;2023-04-12T06:34:06;97289.30;;;5.85;100.00
32492;BME280;20605;49.742;18.802;2023-04-12T06:36:33;97286.66;;;5.90;100.00
32492;BME280;20605;49.742;18.802;2023-04-12T06:39:05;97281.52;;;5.97;100.00
32492;BME280;20605;49.742;18.802;2023-04-12T06:41:41;97286.64;;;6.07;100.00
32492;BME280;20605;49.742;18.802;2023-04-12T06:44:20;97284.88;;;6.17;100.00
32492;BME280;20605;49.742;18.802;2023-04-12T06:46:51;97282.56;;;6.27;100.00
32492;BME280;20605;49.742;18.802;2023-04-12T06:49:17;97280.08;;;6.37;100.00
32492;BME280;20605;49.742;18.802;2023-04-12T06:51:43;97275.39;;;6.46;100.00
32492;BME280;20605;49.742;18.802;2023-04-12T06:54:13;97272.86;;;6.50;100.00
32492;BME280;20605;49.742;18.802;2023-04-12T06:56:47;97274.42;;;6.57;100.00
32492;BME280;20605;49.742;18.802;2023-04-12T07:34:54;97277.81;;;7.20;100.00
32492;BME280;20605;49.742;18.802;2023-04-12T07:38:40;97280.42;;;7.32;100.00
32492;BME280;20605;49.742;18.802;2023-04-12T07:42:26;97277.89;;;7.36;100.00
32492;BME280;20605;49.742;18.802;2023-04-12T07:46:15;97276.41;;;7.52;100.00
32492;BME280;20605;49.742;18.802;2023-04-12T07:50:01;97272.86;;;7.74;100.00
32492;BME280;20605;49.742;18.802;2023-04-12T07:53:47;97268.23;;;7.78;100.00
32492;BME280;20605;49.742;18.802;2023-04-12T07:57:34;97260.95;;;7.90;100.00
32492;BME280;20605;49.742;18.802;2023-04-12T08:01:20;97254.54;;;8.02;100.00
32492;BME280;20605;49.742;18.802;2023-04-12T08:05:06;97249.20;;;8.40;100.00
32492;BME280;20605;49.742;18.802;2023-04-12T08:08:53;97246.79;;;8.77;100.00
32492;BME280;20605;49.742;18.802;2023-04-12T08:12:40;97247.08;;;9.10;100.00
32492;BME280;20605;49.742;18.802;2023-04-12T09:23:41;97150.56;;;25.12;75.11
32492;BME280;20605;49.742;18.802;2023-04-12T09:26:07;97145.06;;;25.98;73.21
32492;BME280;20605;49.742;18.802;2023-04-12T09:28:34;97149.47;;;26.77;71.92
32492;BME280;20605;49.742;18.802;2023-04-12T09:30:59;97146.80;;;27.39;69.34
32492;BME280;20605;49.742;18.802;2023-04-12T09:33:36;97143.86;;;27.35;67.79
32492;BME280;20605;49.742;18.802;2023-04-12T09:36:06;97139.04;;;26.68;65.57
32492;BME280;20605;49.742;18.802;2023-04-12T09:38:38;97133.69;;;25.22;64.38
32492;BME280;20605;49.742;18.802;2023-04-12T09:41:20;97127.14;;;23.70;64.62
32492;BME280;20605;49.742;18.802;2023-04-12T09:43:47;97131.61;;;22.48;65.05
32492;BME280;20605;49.742;18.802;2023-04-12T09:46:13;97130.10;;;21.92;64.79
32492;BME280;20605;49.742;18.802;2023-04-12T09:48:40;97125.19;;;21.47;65.11
32492;BME280;20605;49.742;18.802;2023-04-12T09:51:07;97117.02;;;21.60;65.40
32492;BME280;20605;49.742;18.802;2023-04-12T09:53:33;97108.70;;;21.66;64.47
32492;BME280;20605;49.742;18.802;2023-04-12T09:56:02;97110.45;;;21.38;63.57
32492;BME280;20605;49.742;18.802;2023-04-12T09:58:30;97105.73;;;20.85;63.30
32492;BME280;20605;49.742;18.802;2023-04-12T10:00:59;97109.25;;;20.39;66.55
32492;BME280;20605;49.742;18.802;2023-04-12T10:03:28;97109.91;;;20.35;67.24
32492;BME280;20605;49.742;18.802;2023-04-12T10:05:54;97107.89;;;20.04;65.39
32492;BME280;20605;49.742;18.802;2023-04-12T10:08:22;97106.30;;;19.38;65.81
32492;BME280;20605;49.742;18.802;2023-04-12T10:10:48;97102.08;;;18.81;65.76
32492;BME280;20605;49.742;18.802;2023-04-12T10:13:15;97100.61;;;18.16;64.93
32492;BME280;20605;49.742;18.802;2023-04-12T10:15:44;97097.65;;;17.44;65.84
32492;BME280;20605;49.742;18.802;2023-04-12T10:18:13;97103.71;;;16.91;65.99
32492;BME280;20605;49.742;18.802;2023-04-12T10:20:39;97110.68;;;16.44;66.76
32492;BME280;20605;49.742;18.802;2023-04-12T10:23:10;97105.23;;;16.04;66.85
32492;BME280;20605;49.742;18.802;2023-04-12T10:25:38;97103.06;;;15.59;66.93
32492;BME280;20605;49.742;18.802;2023-04-12T10:28:17;97100.14;;;15.27;68.54
32492;BME280;20605;49.742;18.802;2023-04-12T10:30:44;97096.54;;;15.12;69.28
32492;BME280;20605;49.742;18.802;2023-04-12T10:33:14;97095.66;;;14.92;69.68
32492;BME280;20605;49.742;18.802;2023-04-12T10:35:49;97089.50;;;14.84;72.02
32492;BME280;20605;49.742;18.802;2023-04-12T10:38:16;97089.17;;;14.83;70.80
32492;BME280;20605;49.742;18.802;2023-04-12T10:43:44;97088.13;;;14.45;72.75
32492;BME280;20605;49.742;18.802;2023-04-12T10:49:12;97069.94;;;14.42;71.84
32492;BME280;20605;49.742;18.802;2023-04-12T10:51:39;97070.19;;;14.14;72.27
32492;BME280;20605;49.742;18.802;2023-04-12T10:56:51;97063.44;;;13.95;72.97
32492;BME280;20605;49.742;18.802;2023-04-12T10:59:23;97057.98;;;13.78;73.08
32492;BME280;20605;49.742;18.802;2023-04-12T11:02:11;97054.73;;;13.67;73.42
32492;BME280;20605;49.742;18.802;2023-04-12T11:05:06;97053.41;;;13.63;73.94
32492;BME280;20605;49.742;18.802;2023-04-12T11:07:53;97047.67;;;13.50;74.46
32492;BME280;20605;49.742;18.802;2023-04-12T11:10:39;97042.38;;;13.48;74.99
32492;BME280;20605;49.742;18.802;2023-04-12T11:13:09;97046.11;;;13.47;74.58
32492;BME280;20605;49.742;18.802;2023-04-12T11:15:38;97041.70;;;13.47;75.88
32492;BME280;20605;49.742;18.802;2023-04-12T11:18:10;97043.86;;;13.52;75.33
32492;BME280;20605;49.742;18.802;2023-04-12T11:20:38;97041.92;;;13.59;75.29
32492;BME280;20605;49.742;18.802;2023-04-12T11:23:07;97044.73;;;13.68;74.98
32492;BME280;20605;49.742;18.802;2023-04-12T11:25:33;97039.17;;;13.70;75.17
32492;BME280;20605;49.742;18.802;2023-04-12T11:28:00;97038.81;;;13.77;75.88
32492;BME280;20605;49.742;18.802;2023-04-12T11:30:27;97034.48;;;13.98;76.79
32492;BME280;20605;49.742;18.802;2023-04-12T11:32:53;97026.64;;;14.03;75.80
32492;BME280;20605;49.742;18.802;2023-04-12T11:35:19;97030.58;;;13.99;75.66
32492;BME280;20605;49.742;18.802;2023-04-12T11:37:53;97032.59;;;13.97;76.20
32492;BME280;20605;49.742;18.802;2023-04-12T11:40:20;97031.41;;;13.97;76.86
32492;BME280;20605;49.742;18.802;2023-04-12T11:42:47;97031.36;;;14.00;76.97
32492;BME280;20605;49.742;18.802;2023-04-12T11:45:18;97022.61;;;13.89;75.37
32492;BME280;20605;49.742;18.802;2023-04-12T11:47:44;97021.99;;;13.72;76.32
32492;BME280;20605;49.742;18.802;2023-04-12T11:50:11;97018.34;;;13.81;76.08
32492;BME280;20605;49.742;18.802;2023-04-12T11:52:37;97012.34;;;13.88;75.83
32492;BME280;20605;49.742;18.802;2023-04-12T11:55:04;97012.89;;;13.85;75.66
32492;BME280;20605;49.742;18.802;2023-04-12T11:57:38;97015.09;;;13.83;75.42
32492;BME280;20605;49.742;18.802;2023-04-12T12:00:04;97010.48;;;13.76;75.91
32492;BME280;20605;49.742;18.802;2023-04-12T12:03:00;97006.77;;;13.76;76.34
32492;BME280;20605;49.742;18.802;2023-04-12T12:05:35;96997.35;;;13.73;75.27
32492;BME280;20605;49.742;18.802;2023-04-12T12:08:02;96994.41;;;13.60;75.06
32492;BME280;20605;49.742;18.802;2023-04-12T12:10:36;96991.92;;;13.49;75.80
32492;BME280;20605;49.742;18.802;2023-04-12T12:17:02;96987.64;;;13.41;75.86
32492;BME280;20605;49.742;18.802;2023-04-12T12:20:04;96982.59;;;13.29;76.13
32492;BME280;20605;49.742;18.802;2023-04-12T12:22:45;96975.14;;;13.28;76.69
32492;BME280;20605;49.742;18.802;2023-04-12T12:25:18;96970.47;;;13.33;77.38
32492;BME280;20605;49.742;18.802;2023-04-12T12:28:04;96968.06;;;13.45;78.40
32492;BME280;20605;49.742;18.802;2023-04-12T12:31:52;96965.41;;;13.67;77.10
32492;BME280;20605;49.742;18.802;2023-04-12T12:42:44;96953.75;;;13.79;76.30
32492;BME280;20605;49.742;18.802;2023-04-12T12:46:35;96948.74;;;13.63;76.14
32492;BME280;20605;49.742;18.802;2023-04-12T12:50:04;96941.63;;;13.77;76.34
32492;BME280;20605;49.742;18.802;2023-04-12T12:53:52;96940.57;;;13.71;77.17
32492;BME280;20605;49.742;18.802;2023-04-12T12:57:19;96928.10;;;13.93;76.80
32492;BME280;20605;49.742;18.802;2023-04-12T13:00:04;96920.20;;;13.91;76.19
32492;BME280;20605;49.742;18.802;2023-04-12T13:02:30;96913.28;;;13.87;76.62
32492;BME280;20605;49.742;18.802;2023-04-12T13:05:20;96910.48;;;13.84;76.21
32492;BME280;20605;49.742;18.802;2023-04-12T13:08:07;96909.97;;;13.79;76.39
32492;BME280;20605;49.742;18.802;2023-04-12T13:10:34;96906.66;;;13.81;76.53
32492;BME280;20605;49.742;18.802;2023-04-12T13:13:01;96902.52;;;13.92;76.15
32492;BME280;20605;49.742;18.802;2023-04-12T13:15:27;96899.09;;;13.97;75.79
32492;BME280;20605;49.742;18.802;2023-04-12T13:17:53;96901.73;;;13.97;75.46
32492;BME280;20605;49.742;18.802;2023-04-12T13:20:22;96896.72;;;13.93;75.29
32492;BME280;20605;49.742;18.802;2023-04-12T13:22:49;96892.98;;;13.85;74.72
32492;BME280;20605;49.742;18.802;2023-04-12T13:25:19;96895.34;;;13.84;74.69
32492;BME280;20605;49.742;18.802;2023-04-12T13:27:52;96888.92;;;13.83;74.34
32492;BME280;20605;49.742;18.802;2023-04-12T13:30:18;96888.55;;;13.72;73.89
32492;BME280;20605;49.742;18.802;2023-04-12T13:32:44;96887.18;;;13.71;74.34
32492;BME280;20605;49.742;18.802;2023-04-12T13:35:11;96882.37;;;13.76;74.06
32492;BME280;20605;49.742;18.802;2023-04-12T13:37:38;96879.19;;;13.77;74.21
32492;BME280;20605;49.742;18.802;2023-04-12T13:40:05;96874.77;;;13.81;74.89
32492;BME280;20605;49.742;18.802;2023-04-12T13:42:31;96872.13;;;13.87;75.33
32492;BME280;20605;49.742;18.802;2023-04-12T13:44:57;96870.73;;;13.95;75.01
32492;BME280;20605;49.742;18.802;2023-04-12T13:47:25;96862.23;;;14.03;74.79
32492;BME280;20605;49.742;18.802;2023-04-12T13:49:52;96859.89;;;14.13;74.90
32492;BME280;20605;49.742;18.802;2023-04-12T13:52:19;96857.99;;;14.21;74.55
32492;BME280;20605;49.742;18.802;2023-04-12T13:54:46;96859.63;;;14.18;73.44
32492;BME280;20605;49.742;18.802;2023-04-12T13:57:12;96857.11;;;14.01;73.42
32492;BME280;20605;49.742;18.802;2023-04-12T13:59:38;96853.68;;;13.97;73.62
32492;BME280;20605;49.742;18.802;2023-04-12T14:02:03;96848.64;;;13.91;73.32
32492;BME280;20605;49.742;18.802;2023-04-12T14:04:30;96850.42;;;13.79;73.25
32492;BME280;20605;49.742;18.802;2023-04-12T14:06:57;96850.71;;;13.77;73.40
32492;BME280;20605;49.742;18.802;2023-04-12T14:09:28;96854.15;;;13.84;73.89
32492;BME280;20605;49.742;18.802;2023-04-12T14:11:56;96851.32;;;13.88;73.50
32492;BME280;20605;49.742;18.802;2023-04-12T14:14:23;96843.63;;;13.82;73.27
32492;BME280;20605;49.742;18.802;2023-04-12T14:16:51;96840.05;;;13.84;73.62
32492;BME280;20605;49.742;18.802;2023-04-12T14:19:18;96839.86;;;13.75;73.29
32492;BME280;20605;49.742;18.802;2023-04-12T14:21:46;96836.34;;;13.70;73.71
32492;BME280;20605;49.742;18.802;2023-04-12T14:24:12;96830.38;;;13.70;73.99
32492;BME280;20605;49.742;18.802;2023-04-12T14:26:38;96828.09;;;13.76;74.31
32492;BME280;20605;49.742;18.802;2023-04-12T14:29:08;96828.69;;;13.84;73.77
32492;BME280;20605;49.742;18.802;2023-04-12T14:31:34;96829.63;;;13.86;73.60
32492;BME280;20605;49.742;18.802;2023-04-12T14:34:03;96833.23;;;13.86;73.25
32492;BME280;20605;49.742;18.802;2023-04-12T14:36:30;96834.84;;;13.86;72.83
32492;BME280;20605;49.742;18.802;2023-04-12T14:38:57;96829.33;;;13.85;72.70
32492;BME280;20605;49.742;18.802;2023-04-12T14:41:23;96828.39;;;13.88;72.68
32492;BME280;20605;49.742;18.802;2023-04-12T14:43:50;96828.36;;;13.92;72.42
32492;BME280;20605;49.742;18.802;2023-04-12T14:46:16;96825.05;;;13.95;72.65
32492;BME280;20605;49.742;18.802;2023-04-12T14:48:42;96823.38;;;13.99;72.76
32492;BME280;20605;49.742;18.802;2023-04-12T14:51:09;96818.39;;;13.98;72.95
32492;BME280;20605;49.742;18.802;2023-04-12T14:53:35;96817.86;;;13.95;72.65
32492;BME280;20605;49.742;18.802;2023-04-12T14:56:01;96810.09;;;13.94;72.71
32492;BME280;20605;49.742;18.802;2023-04-12T14:58:32;96809.31;;;13.98;72.81
32492;BME280;20605;49.742;18.802;2023-04-12T15:00:58;96806.82;;;14.08;73.33
32492;BME280;20605;49.742;18.802;2023-04-12T15:03:25;96804.09;;;14.07;73.09
32492;BME280;20605;49.742;18.802;2023-04-12T15:05:54;96806.39;;;14.03;73.31
32492;BME280;20605;49.742;18.802;2023-04-12T15:08:20;96808.70;;;14.02;73.63
32492;BME280;20605;49.742;18.802;2023-04-12T15:10:47;96805.44;;;14.07;74.02
32492;BME280;20605;49.742;18.802;2023-04-12T15:13:13;96798.42;;;14.05;74.03
32492;BME280;20605;49.742;18.802;2023-04-12T15:15:39;96795.44;;;13.97;73.95
32492;BME280;20605;49.742;18.802;2023-04-12T15:18:06;96795.02;;;13.83;74.31
32492;BME280;20605;49.742;18.802;2023-04-12T15:20:31;96794.04;;;13.65;74.59
32492;BME280;20605;49.742;18.802;2023-04-12T15:22:57;96789.23;;;13.52;75.26
32492;BME280;20605;49.742;18.802;2023-04-12T15:25:23;96787.69;;;13.49;75.70
32492;BME280;20605;49.742;18.802;2023-04-12T15:27:49;96783.78;;;13.47;76.13
32492;BME280;20605;49.742;18.802;2023-04-12T15:30:15;96789.06;;;13.40;76.22
32492;BME280;20605;49.742;18.802;2023-04-12T15:32:42;96786.84;;;13.28;76.06
32492;BME280;20605;49.742;18.802;2023-04-12T15:35:08;96782.92;;;13.21;76.66
32492;BME280;20605;49.742;18.802;2023-04-12T15:37:35;96776.36;;;13.16;76.77
32492;BME280;20605;49.742;18.802;2023-04-12T15:40:01;96773.70;;;13.14;76.92
32492;BME280;20605;49.742;18.802;2023-04-12T15:42:42;96778.02;;;13.12;76.74
32492;BME280;20605;49.742;18.802;2023-04-12T15:45:09;96782.35;;;13.03;76.84
32492;BME280;20605;49.742;18.802;2023-04-12T15:47:36;96783.50;;;12.95;77.44
32492;BME280;20605;49.742;18.802;2023-04-12T15:50:03;96775.05;;;12.94;77.45
32492;BME280;20605;49.742;18.802;2023-04-12T15:52:29;96771.36;;;12.91;77.39
32492;BME280;20605;49.742;18.802;2023-04-12T15:54:58;96769.30;;;12.85;77.48
32492;BME280;20605;49.742;18.802;2023-04-12T15:57:24;96771.77;;;12.75;77.37
32492;BME280;20605;49.742;18.802;2023-04-12T15:59:51;96771.27;;;12.69;78.15
32492;BME280;20605;49.742;18.802;2023-04-12T16:02:25;96770.05;;;12.68;78.55
32492;BME280;20605;49.742;18.802;2023-04-12T16:04:51;96768.08;;;12.64;78.14
32492;BME280;20605;49.742;18.802;2023-04-12T16:07:20;96768.25;;;12.54;78.77
32492;BME280;20605;49.742;18.802;2023-04-12T16:09:46;96764.97;;;12.48;78.73
32492;BME280;20605;49.742;18.802;2023-04-12T16:12:12;96760.85;;;12.40;78.86
32492;BME280;20605;49.742;18.802;2023-04-12T16:14:38;96755.46;;;12.31;78.86
32492;BME280;20605;49.742;18.802;2023-04-12T16:17:03;96755.40;;;12.22;79.25
32492;BME280;20605;49.742;18.802;2023-04-12T16:19:29;96753.33;;;12.16;79.40
32492;BME280;20605;49.742;18.802;2023-04-12T16:21:57;96750.44;;;12.08;79.67
32492;BME280;20605;49.742;18.802;2023-04-12T16:24:23;96751.79;;;12.02;80.09
32492;BME280;20605;49.742;18.802;2023-04-12T16:27:07;96754.88;;;11.97;80.36
32492;BME280;20605;49.742;18.802;2023-04-12T16:33:43;96758.97;;;11.75;81.37
32492;BME280;20605;49.742;18.802;2023-04-12T16:36:18;96751.67;;;11.66;81.80
32492;BME280;20605;49.742;18.802;2023-04-12T16:38:50;96748.45;;;11.61;82.22
32492;BME280;20605;49.742;18.802;2023-04-12T16:41:19;96743.43;;;11.54;82.26
32492;BME280;20605;49.742;18.802;2023-04-12T16:43:45;96742.84;;;11.45;82.79
32492;BME280;20605;49.742;18.802;2023-04-12T16:46:11;96743.15;;;11.36;83.24
32492;BME280;20605;49.742;18.802;2023-04-12T16:48:37;96738.19;;;11.28;83.85
32492;BME280;20605;49.742;18.802;2023-04-12T16:51:03;96737.06;;;11.19;83.91
32492;BME280;20605;49.742;18.802;2023-04-12T16:53:30;96741.15;;;11.10;84.36
32492;BME280;20605;49.742;18.802;2023-04-12T16:56:00;96737.88;;;11.03;84.56
32492;BME280;20605;49.742;18.802;2023-04-12T16:58:27;96736.04;;;10.95;84.71
32492;BME280;20605;49.742;18.802;2023-04-12T17:00:53;96736.56;;;10.85;84.84
32492;BME280;20605;49.742;18.802;2023-04-12T17:03:20;96738.57;;;10.75;85.07
32492;BME280;20605;49.742;18.802;2023-04-12T17:05:46;96734.64;;;10.64;85.40
32492;BME280;20605;49.742;18.802;2023-04-12T17:08:12;96739.98;;;10.54;85.40
32492;BME280;20605;49.742;18.802;2023-04-12T17:10:40;96740.32;;;10.43;85.78
32492;BME280;20605;49.742;18.802;2023-04-12T17:13:06;96737.58;;;10.32;86.38
32492;BME280;20605;49.742;18.802;2023-04-12T17:15:33;96739.80;;;10.22;86.85